sensor_id;sensor_type;location;lat;lon;timestamp;P1;durP1;ratioP1;P2;durP2;ratioP2
1799;SDS011;919;48.274;12.292;2022-08-19T00:00:29;11.20;;;9.90;;
1799;SDS011;919;48.274;12.292;2022-08-19T00:02:57;13.73;;;11.30;;
1799;SDS011;919;48.274;12.292;2022-08-19T00:05:23;13.27;;;11.53;;
1799;SDS011;919;48.274;12.292;2022-08-19T00:07:50;13.23;;;11.83;;
1799;SDS011;919;48.274;12.292;2022-08-19T00:10:18;11.30;;;10.20;;
1799;SDS011;919;48.274;12.292;2022-08-19T00:12:46;12.97;;;11.00;;
1799;SDS011;919;48.274;12.292;2022-08-19T00:15:14;13.60;;;11.20;;
1799;SDS011;919;48.274;12.292;2022-08-19T00:17:45;12.03;;;10.23;;
1799;SDS011;919;48.274;12.292;2022-08-19T00:20:14;10.20;;;9.17;;
1799;SDS011;919;48.274;12.292;2022-08-19T00:22:43;11.27;;;10.17;;
1799;SDS011;919;48.274;12.292;2022-08-19T00:25:10;12.00;;;10.67;;
1799;SDS011;919;48.274;12.292;2022-08-19T00:27:38;11.73;;;10.50;;
1799;SDS011;919;48.274;12.292;2022-08-19T00:30:05;10.90;;;9.80;;
1799;SDS011;919;48.274;12.292;2022-08-19T00:32:35;13.20;;;11.80;;
1799;SDS011;919;48.274;12.292;2022-08-19T00:35:04;12.30;;;11.10;;
1799;SDS011;919;48.274;12.292;2022-08-19T00:37:31;12.50;;;11.13;;
1799;SDS011;919;48.274;12.292;2022-08-19T00:39:59;12.30;;;11.20;;
1799;SDS011;919;48.274;12.292;2022-08-19T00:42:27;12.33;;;10.97;;
1799;SDS011;919;48.274;12.292;2022-08-19T00:44:54;12.63;;;11.33;;
1799;SDS011;919;48.274;12.292;2022-08-19T00:47:21;11.80;;;10.67;;
1799;SDS011;919;48.274;12.292;2022-08-19T00:49:48;12.37;;;11.07;;
1799;SDS011;919;48.274;12.292;2022-08-19T00:52:20;12.50;;;11.20;;
1799;SDS011;919;48.274;12.292;2022-08-19T00:54:49;11.90;;;10.53;;
1799;SDS011;919;48.274;12.292;2022-08-19T00:57:18;11.87;;;10.57;;
1799;SDS011;919;48.274;12.292;2022-08-19T00:59:51;11.97;;;10.77;;
1799;SDS011;919;48.274;12.292;2022-08-19T01:02:20;11.30;;;10.10;;
1799;SDS011;919;48.274;12.292;2022-08-19T01:04:47;10.13;;;9.10;;
1799;SDS011;919;48.274;12.292;2022-08-19T01:07:13;10.13;;;9.13;;
1799;SDS011;919;48.274;12.292;2022-08-19T01:09:41;10.17;;;9.13;;
1799;SDS011;919;48.274;12.292;2022-08-19T01:12:08;8.83;;;8.03;;
1799;SDS011;919;48.274;12.292;2022-08-19T01:14:35;9.43;;;8.60;;
1799;SDS011;919;48.274;12.292;2022-08-19T01:17:04;10.43;;;9.43;;
1799;SDS011;919;48.274;12.292;2022-08-19T01:19:34;10.43;;;9.27;;
1799;SDS011;919;48.274;12.292;2022-08-19T01:22:05;9.03;;;7.73;;
1799;SDS011;919;48.274;12.292;2022-08-19T01:24:39;11.13;;;10.03;;
1799;SDS011;919;48.274;12.292;2022-08-19T01:27:06;10.30;;;8.20;;
1799;SDS011;919;48.274;12.292;2022-08-19T01:29:34;9.27;;;8.37;;
1799;SDS011;919;48.274;12.292;2022-08-19T01:32:04;9.87;;;8.47;;
1799;SDS011;919;48.274;12.292;2022-08-19T01:34:31;13.30;;;8.77;;
1799;SDS011;919;48.274;12.292;2022-08-19T01:36:59;9.47;;;8.50;;
1799;SDS011;919;48.274;12.292;2022-08-19T01:39:27;9.53;;;8.60;;
1799;SDS011;919;48.274;12.292;2022-08-19T01:41:55;8.60;;;7.80;;
1799;SDS011;919;48.274;12.292;2022-08-19T01:44:22;10.10;;;9.17;;
1799;SDS011;919;48.274;12.292;2022-08-19T01:46:50;9.37;;;8.47;;
1799;SDS011;919;48.274;12.292;2022-08-19T01:49:19;9.60;;;8.60;;
1799;SDS011;919;48.274;12.292;2022-08-19T01:51:48;10.57;;;8.90;;
1799;SDS011;919;48.274;12.292;2022-08-19T01:54:16;9.27;;;7.77;;
1799;SDS011;919;48.274;12.292;2022-08-19T01:56:44;9.13;;;8.23;;
1799;SDS011;919;48.274;12.292;2022-08-19T01:59:13;8.57;;;7.77;;
1799;SDS011;919;48.274;12.292;2022-08-19T02:01:42;8.40;;;7.60;;
1799;SDS011;919;48.274;12.292;2022-08-19T02:04:09;11.60;;;8.50;;
1799;SDS011;919;48.274;12.292;2022-08-19T02:06:36;7.33;;;6.60;;
1799;SDS011;919;48.274;12.292;2022-08-19T02:09:04;6.27;;;5.77;;
1799;SDS011;919;48.274;12.292;2022-08-19T02:11:33;8.90;;;6.83;;
1799;SDS011;919;48.274;12.292;2022-08-19T02:14:03;7.47;;;6.80;;
1799;SDS011;919;48.274;12.292;2022-08-19T02:16:33;6.90;;;6.23;;
1799;SDS011;919;48.274;12.292;2022-08-19T02:19:02;7.67;;;6.97;;
1799;SDS011;919;48.274;12.292;2022-08-19T02:21:29;6.40;;;5.90;;
1799;SDS011;919;48.274;12.292;2022-08-19T02:23:56;6.60;;;6.00;;
1799;SDS011;919;48.274;12.292;2022-08-19T02:26:24;6.50;;;5.90;;
1799;SDS011;919;48.274;12.292;2022-08-19T02:28:52;6.40;;;5.67;;
1799;SDS011;919;48.274;12.292;2022-08-19T02:31:20;6.70;;;6.10;;
1799;SDS011;919;48.274;12.292;2022-08-19T02:33:49;8.73;;;6.80;;
1799;SDS011;919;48.274;12.292;2022-08-19T02:36:17;6.90;;;6.30;;
1799;SDS011;919;48.274;12.292;2022-08-19T02:38:44;6.40;;;5.80;;
1799;SDS011;919;48.274;12.292;2022-08-19T02:41:11;6.80;;;6.20;;
1799;SDS011;919;48.274;12.292;2022-08-19T02:43:41;7.70;;;6.90;;
1799;SDS011;919;48.274;12.292;2022-08-19T02:46:12;7.20;;;6.30;;
1799;SDS011;919;48.274;12.292;2022-08-19T02:48:40;7.03;;;6.40;;
1799;SDS011;919;48.274;12.292;2022-08-19T02:51:08;7.77;;;7.07;;
1799;SDS011;919;48.274;12.292;2022-08-19T02:53:42;6.50;;;5.90;;
1799;SDS011;919;48.274;12.292;2022-08-19T02:56:09;8.77;;;7.87;;
1799;SDS011;919;48.274;12.292;2022-08-19T02:58:36;7.90;;;7.10;;
1799;SDS011;919;48.274;12.292;2022-08-19T03:01:03;7.80;;;6.63;;
1799;SDS011;919;48.274;12.292;2022-08-19T03:03:30;8.53;;;7.73;;
1799;SDS011;919;48.274;12.292;2022-08-19T03:06:04;7.57;;;6.87;;
1799;SDS011;919;48.274;12.292;2022-08-19T03:08:34;8.73;;;7.83;;
1799;SDS011;919;48.274;12.292;2022-08-19T03:11:01;9.07;;;7.57;;
1799;SDS011;919;48.274;12.292;2022-08-19T03:13:28;7.33;;;6.67;;
1799;SDS011;919;48.274;12.292;2022-08-19T03:15:55;7.47;;;6.73;;
1799;SDS011;919;48.274;12.292;2022-08-19T03:18:22;8.63;;;7.73;;
1799;SDS011;919;48.274;12.292;2022-08-19T03:20:50;7.80;;;7.00;;
1799;SDS011;919;48.274;12.292;2022-08-19T03:23:19;8.27;;;7.20;;
1799;SDS011;919;48.274;12.292;2022-08-19T03:25:49;8.73;;;7.93;;
1799;SDS011;919;48.274;12.292;2022-08-19T03:28:17;7.30;;;6.60;;
1799;SDS011;919;48.274;12.292;2022-08-19T03:30:54;8.30;;;7.40;;
1799;SDS011;919;48.274;12.292;2022-08-19T03:33:22;8.53;;;7.73;;
1799;SDS011;919;48.274;12.292;2022-08-19T03:35:59;11.83;;;8.30;;
1799;SDS011;919;48.274;12.292;2022-08-19T03:38:30;8.30;;;7.50;;
1799;SDS011;919;48.274;12.292;2022-08-19T03:40:59;8.10;;;7.03;;
1799;SDS011;919;48.274;12.292;2022-08-19T03:43:31;7.73;;;7.03;;
1799;SDS011;919;48.274;12.292;2022-08-19T03:46:00;7.13;;;6.43;;
1799;SDS011;919;48.274;12.292;2022-08-19T03:48:29;8.20;;;6.70;;
1799;SDS011;919;48.274;12.292;2022-08-19T03:50:56;7.83;;;7.10;;
1799;SDS011;919;48.274;12.292;2022-08-19T03:53:24;7.73;;;6.87;;
1799;SDS011;919;48.274;12.292;2022-08-19T03:55:51;8.70;;;6.90;;
1799;SDS011;919;48.274;12.292;2022-08-19T03:58:20;8.40;;;7.50;;
1799;SDS011;919;48.274;12.292;2022-08-19T04:00:47;7.13;;;6.43;;
1799;SDS011;919;48.274;12.292;2022-08-19T04:03:14;7.80;;;7.07;;
1799;SDS011;919;48.274;12.292;2022-08-19T04:05:43;7.60;;;6.87;;
1799;SDS011;919;48.274;12.292;2022-08-19T04:08:11;7.90;;;7.10;;
1799;SDS011;919;48.274;12.292;2022-08-19T04:10:38;8.60;;;7.13;;
1799;SDS011;919;48.274;12.292;2022-08-19T04:13:05;6.60;;;6.00;;
1799;SDS011;919;48.274;12.292;2022-08-19T04:15:38;6.60;;;6.00;;
1799;SDS011;919;48.274;12.292;2022-08-19T04:18:06;7.13;;;6.50;;
1799;SDS011;919;48.274;12.292;2022-08-19T04:20:38;6.70;;;6.10;;
1799;SDS011;919;48.274;12.292;2022-08-19T04:23:06;6.53;;;5.93;;
1799;SDS011;919;48.274;12.292;2022-08-19T04:25:35;6.90;;;5.50;;
1799;SDS011;919;48.274;12.292;2022-08-19T04:28:03;5.40;;;4.90;;
1799;SDS011;919;48.274;12.292;2022-08-19T04:30:30;5.27;;;4.77;;
1799;SDS011;919;48.274;12.292;2022-08-19T04:33:04;6.20;;;5.10;;
1799;SDS011;919;48.274;12.292;2022-08-19T04:35:34;5.77;;;5.17;;
1799;SDS011;919;48.274;12.292;2022-08-19T04:38:02;6.30;;;5.70;;
1799;SDS011;919;48.274;12.292;2022-08-19T04:40:29;8.80;;;6.70;;
1799;SDS011;919;48.274;12.292;2022-08-19T04:43:13;8.00;;;7.20;;
1799;SDS011;919;48.274;12.292;2022-08-19T04:45:41;8.30;;;7.20;;
1799;SDS011;919;48.274;12.292;2022-08-19T04:48:08;7.20;;;6.43;;
1799;SDS011;919;48.274;12.292;2022-08-19T04:50:35;8.03;;;6.83;;
1799;SDS011;919;48.274;12.292;2022-08-19T04:53:05;7.63;;;6.93;;
1799;SDS011;919;48.274;12.292;2022-08-19T04:55:32;7.23;;;6.60;;
1799;SDS011;919;48.274;12.292;2022-08-19T04:58:00;7.03;;;6.33;;
1799;SDS011;919;48.274;12.292;2022-08-19T05:00:27;5.50;;;5.00;;
1799;SDS011;919;48.274;12.292;2022-08-19T05:02:55;6.70;;;6.10;;
1799;SDS011;919;48.274;12.292;2022-08-19T05:05:22;5.63;;;4.83;;
1799;SDS011;919;48.274;12.292;2022-08-19T05:07:49;5.87;;;5.37;;
1799;SDS011;919;48.274;12.292;2022-08-19T05:10:16;6.93;;;6.23;;
1799;SDS011;919;48.274;12.292;2022-08-19T05:12:42;8.70;;;7.60;;
1799;SDS011;919;48.274;12.292;2022-08-19T05:15:09;7.77;;;7.07;;
1799;SDS011;919;48.274;12.292;2022-08-19T05:17:36;7.80;;;6.80;;
1799;SDS011;919;48.274;12.292;2022-08-19T05:20:24;9.10;;;5.87;;
1799;SDS011;919;48.274;12.292;2022-08-19T05:23:10;6.10;;;5.57;;
1799;SDS011;919;48.274;12.292;2022-08-19T05:25:40;7.10;;;6.40;;
1799;SDS011;919;48.274;12.292;2022-08-19T05:28:07;6.70;;;6.10;;
1799;SDS011;919;48.274;12.292;2022-08-19T05:30:34;8.67;;;6.73;;
1799;SDS011;919;48.274;12.292;2022-08-19T05:33:01;8.90;;;8.00;;
1799;SDS011;919;48.274;12.292;2022-08-19T05:35:29;8.30;;;7.47;;
1799;SDS011;919;48.274;12.292;2022-08-19T05:37:55;7.33;;;6.63;;
1799;SDS011;919;48.274;12.292;2022-08-19T05:40:22;8.93;;;7.50;;
1799;SDS011;919;48.274;12.292;2022-08-19T05:42:49;7.90;;;7.20;;
1799;SDS011;919;48.274;12.292;2022-08-19T05:45:16;7.30;;;6.57;;
1799;SDS011;919;48.274;12.292;2022-08-19T05:47:43;7.37;;;6.67;;
1799;SDS011;919;48.274;12.292;2022-08-19T05:50:11;8.70;;;7.80;;
1799;SDS011;919;48.274;12.292;2022-08-19T05:52:39;8.37;;;7.57;;
1799;SDS011;919;48.274;12.292;2022-08-19T05:55:06;7.57;;;6.83;;
1799;SDS011;919;48.274;12.292;2022-08-19T05:57:33;8.17;;;7.37;;
1799;SDS011;919;48.274;12.292;2022-08-19T06:00:00;9.13;;;7.60;;
1799;SDS011;919;48.274;12.292;2022-08-19T06:02:27;8.23;;;7.00;;
1799;SDS011;919;48.274;12.292;2022-08-19T06:04:55;7.90;;;6.20;;
1799;SDS011;919;48.274;12.292;2022-08-19T06:07:22;7.80;;;6.50;;
1799;SDS011;919;48.274;12.292;2022-08-19T06:09:50;7.77;;;6.97;;
1799;SDS011;919;48.274;12.292;2022-08-19T06:12:17;7.73;;;6.93;;
1799;SDS011;919;48.274;12.292;2022-08-19T06:14:43;8.43;;;7.60;;
1799;SDS011;919;48.274;12.292;2022-08-19T06:17:10;6.40;;;5.80;;
1799;SDS011;919;48.274;12.292;2022-08-19T06:19:37;7.73;;;6.90;;
1799;SDS011;919;48.274;12.292;2022-08-19T06:22:06;6.10;;;5.37;;
1799;SDS011;919;48.274;12.292;2022-08-19T06:24:33;5.60;;;5.10;;
1799;SDS011;919;48.274;12.292;2022-08-19T06:27:03;7.50;;;6.70;;
1799;SDS011;919;48.274;12.292;2022-08-19T06:29:31;7.70;;;7.00;;
1799;SDS011;919;48.274;12.292;2022-08-19T06:31:59;8.57;;;7.77;;
1799;SDS011;919;48.274;12.292;2022-08-19T06:34:28;8.27;;;7.47;;
1799;SDS011;919;48.274;12.292;2022-08-19T06:36:56;7.87;;;7.00;;
1799;SDS011;919;48.274;12.292;2022-08-19T06:39:25;8.60;;;7.80;;
1799;SDS011;919;48.274;12.292;2022-08-19T06:41:55;9.00;;;8.10;;
1799;SDS011;919;48.274;12.292;2022-08-19T06:44:26;7.63;;;6.93;;
1799;SDS011;919;48.274;12.292;2022-08-19T06:46:54;9.97;;;8.93;;
1799;SDS011;919;48.274;12.292;2022-08-19T06:49:21;9.23;;;7.90;;
1799;SDS011;919;48.274;12.292;2022-08-19T06:51:49;9.00;;;7.40;;
1799;SDS011;919;48.274;12.292;2022-08-19T06:54:16;11.17;;;7.83;;
1799;SDS011;919;48.274;12.292;2022-08-19T06:56:44;9.87;;;8.20;;
1799;SDS011;919;48.274;12.292;2022-08-19T06:59:11;10.40;;;9.10;;
1799;SDS011;919;48.274;12.292;2022-08-19T07:01:42;9.20;;;8.27;;
1799;SDS011;919;48.274;12.292;2022-08-19T07:04:12;8.90;;;8.03;;
1799;SDS011;919;48.274;12.292;2022-08-19T07:06:40;8.20;;;7.40;;
1799;SDS011;919;48.274;12.292;2022-08-19T07:09:08;8.97;;;7.57;;
1799;SDS011;919;48.274;12.292;2022-08-19T07:11:36;7.90;;;7.10;;
1799;SDS011;919;48.274;12.292;2022-08-19T07:14:03;8.70;;;7.83;;
1799;SDS011;919;48.274;12.292;2022-08-19T07:16:31;9.90;;;7.40;;
1799;SDS011;919;48.274;12.292;2022-08-19T07:18:59;8.90;;;7.87;;
1799;SDS011;919;48.274;12.292;2022-08-19T07:21:27;7.80;;;6.83;;
1799;SDS011;919;48.274;12.292;2022-08-19T07:23:54;8.40;;;7.30;;
1799;SDS011;919;48.274;12.292;2022-08-19T07:26:22;9.73;;;8.83;;
1799;SDS011;919;48.274;12.292;2022-08-19T07:28:51;8.37;;;7.40;;
1799;SDS011;919;48.274;12.292;2022-08-19T07:31:19;9.50;;;8.33;;
1799;SDS011;919;48.274;12.292;2022-08-19T07:33:49;10.47;;;9.37;;
1799;SDS011;919;48.274;12.292;2022-08-19T07:36:20;8.63;;;7.83;;
1799;SDS011;919;48.274;12.292;2022-08-19T07:38:50;8.87;;;7.97;;
1799;SDS011;919;48.274;12.292;2022-08-19T07:41:19;10.37;;;9.27;;
1799;SDS011;919;48.274;12.292;2022-08-19T07:43:47;8.87;;;7.93;;
1799;SDS011;919;48.274;12.292;2022-08-19T07:46:15;10.87;;;8.80;;
1799;SDS011;919;48.274;12.292;2022-08-19T07:48:45;9.40;;;8.40;;
1799;SDS011;919;48.274;12.292;2022-08-19T07:51:13;8.07;;;7.27;;
1799;SDS011;919;48.274;12.292;2022-08-19T07:53:43;11.87;;;8.80;;
1799;SDS011;919;48.274;12.292;2022-08-19T07:56:11;10.20;;;8.10;;
1799;SDS011;919;48.274;12.292;2022-08-19T07:58:40;10.23;;;9.17;;
1799;SDS011;919;48.274;12.292;2022-08-19T08:01:09;9.80;;;8.80;;
1799;SDS011;919;48.274;12.292;2022-08-19T08:03:38;13.23;;;11.90;;
1799;SDS011;919;48.274;12.292;2022-08-19T08:06:23;12.37;;;9.83;;
1799;SDS011;919;48.274;12.292;2022-08-19T08:09:09;10.50;;;9.40;;
1799;SDS011;919;48.274;12.292;2022-08-19T08:11:41;12.90;;;10.47;;
1799;SDS011;919;48.274;12.292;2022-08-19T08:14:14;10.03;;;8.90;;
1799;SDS011;919;48.274;12.292;2022-08-19T08:16:44;10.63;;;9.53;;
1799;SDS011;919;48.274;12.292;2022-08-19T08:19:11;10.07;;;8.97;;
1799;SDS011;919;48.274;12.292;2022-08-19T08:21:40;8.97;;;8.10;;
1799;SDS011;919;48.274;12.292;2022-08-19T08:24:09;12.43;;;11.13;;
1799;SDS011;919;48.274;12.292;2022-08-19T08:26:36;11.67;;;10.47;;
1799;SDS011;919;48.274;12.292;2022-08-19T08:29:03;11.37;;;10.13;;
1799;SDS011;919;48.274;12.292;2022-08-19T08:31:33;10.90;;;9.40;;
1799;SDS011;919;48.274;12.292;2022-08-19T08:34:00;12.57;;;11.17;;
1799;SDS011;919;48.274;12.292;2022-08-19T08:36:26;11.53;;;10.00;;
1799;SDS011;919;48.274;12.292;2022-08-19T08:38:53;12.70;;;11.20;;
1799;SDS011;919;48.274;12.292;2022-08-19T08:41:25;11.20;;;10.00;;
1799;SDS011;919;48.274;12.292;2022-08-19T08:43:56;12.23;;;10.90;;
1799;SDS011;919;48.274;12.292;2022-08-19T08:46:25;11.77;;;10.60;;
1799;SDS011;919;48.274;12.292;2022-08-19T08:48:57;13.20;;;11.30;;
1799;SDS011;919;48.274;12.292;2022-08-19T08:51:29;12.67;;;10.20;;
1799;SDS011;919;48.274;12.292;2022-08-19T08:54:00;14.10;;;12.03;;
1799;SDS011;919;48.274;12.292;2022-08-19T08:56:33;11.70;;;10.50;;
1799;SDS011;919;48.274;12.292;2022-08-19T08:59:01;12.37;;;11.07;;
1799;SDS011;919;48.274;12.292;2022-08-19T09:01:31;11.77;;;10.33;;
1799;SDS011;919;48.274;12.292;2022-08-19T09:03:58;13.53;;;11.53;;
1799;SDS011;919;48.274;12.292;2022-08-19T09:06:26;12.17;;;10.40;;
1799;SDS011;919;48.274;12.292;2022-08-19T09:09:01;13.23;;;11.77;;
1799;SDS011;919;48.274;12.292;2022-08-19T09:11:36;14.00;;;12.53;;
1799;SDS011;919;48.274;12.292;2022-08-19T09:14:14;14.63;;;13.10;;
1799;SDS011;919;48.274;12.292;2022-08-19T09:16:49;14.13;;;12.63;;
1799;SDS011;919;48.274;12.292;2022-08-19T09:19:16;15.60;;;12.50;;
1799;SDS011;919;48.274;12.292;2022-08-19T09:21:43;13.83;;;12.17;;
1799;SDS011;919;48.274;12.292;2022-08-19T09:24:11;17.90;;;14.40;;
1799;SDS011;919;48.274;12.292;2022-08-19T09:26:39;15.33;;;12.03;;
1799;SDS011;919;48.274;12.292;2022-08-19T09:29:08;15.07;;;12.73;;
1799;SDS011;919;48.274;12.292;2022-08-19T09:31:36;17.27;;;12.70;;
1799;SDS011;919;48.274;12.292;2022-08-19T09:34:02;16.27;;;12.40;;
1799;SDS011;919;48.274;12.292;2022-08-19T09:36:29;15.33;;;13.20;;
1799;SDS011;919;48.274;12.292;2022-08-19T09:38:58;13.80;;;12.40;;
1799;SDS011;919;48.274;12.292;2022-08-19T09:41:26;16.53;;;12.80;;
1799;SDS011;919;48.274;12.292;2022-08-19T09:43:55;15.80;;;12.93;;
1799;SDS011;919;48.274;12.292;2022-08-19T09:46:23;13.63;;;11.33;;
1799;SDS011;919;48.274;12.292;2022-08-19T09:48:51;14.50;;;11.90;;
1799;SDS011;919;48.274;12.292;2022-08-19T09:51:19;11.97;;;10.40;;
1799;SDS011;919;48.274;12.292;2022-08-19T09:53:47;9.20;;;8.17;;
1799;SDS011;919;48.274;12.292;2022-08-19T09:56:16;11.10;;;9.33;;
1799;SDS011;919;48.274;12.292;2022-08-19T09:58:44;10.43;;;9.33;;
1799;SDS011;919;48.274;12.292;2022-08-19T10:01:16;8.57;;;7.77;;
1799;SDS011;919;48.274;12.292;2022-08-19T10:03:46;8.20;;;7.37;;
1799;SDS011;919;48.274;12.292;2022-08-19T10:06:14;7.23;;;6.57;;
1799;SDS011;919;48.274;12.292;2022-08-19T10:08:41;6.20;;;5.60;;
1799;SDS011;919;48.274;12.292;2022-08-19T10:11:09;9.40;;;8.50;;
1799;SDS011;919;48.274;12.292;2022-08-19T10:13:36;8.17;;;7.37;;
1799;SDS011;919;48.274;12.292;2022-08-19T10:16:05;7.93;;;6.47;;
1799;SDS011;919;48.274;12.292;2022-08-19T10:18:35;11.63;;;8.63;;
1799;SDS011;919;48.274;12.292;2022-08-19T10:21:04;8.70;;;7.70;;
1799;SDS011;919;48.274;12.292;2022-08-19T10:23:34;11.67;;;8.70;;
1799;SDS011;919;48.274;12.292;2022-08-19T10:26:02;9.33;;;8.17;;
1799;SDS011;919;48.274;12.292;2022-08-19T10:28:31;10.80;;;9.53;;
1799;SDS011;919;48.274;12.292;2022-08-19T10:31:02;11.73;;;10.10;;
1799;SDS011;919;48.274;12.292;2022-08-19T10:33:31;11.70;;;10.53;;
1799;SDS011;919;48.274;12.292;2022-08-19T10:36:00;11.17;;;9.97;;
1799;SDS011;919;48.274;12.292;2022-08-19T10:38:27;9.27;;;8.27;;
1799;SDS011;919;48.274;12.292;2022-08-19T10:40:54;13.43;;;10.37;;
1799;SDS011;919;48.274;12.292;2022-08-19T10:43:22;10.73;;;9.63;;
1799;SDS011;919;48.274;12.292;2022-08-19T10:45:51;12.73;;;11.43;;
1799;SDS011;919;48.274;12.292;2022-08-19T10:48:20;11.47;;;10.13;;
1799;SDS011;919;48.274;12.292;2022-08-19T10:50:46;9.83;;;8.90;;
1799;SDS011;919;48.274;12.292;2022-08-19T10:53:32;10.53;;;9.43;;
1799;SDS011;919;48.274;12.292;2022-08-19T10:55:59;10.50;;;8.83;;
1799;SDS011;919;48.274;12.292;2022-08-19T10:58:43;10.87;;;9.77;;
1799;SDS011;919;48.274;12.292;2022-08-19T11:01:10;11.77;;;9.80;;
1799;SDS011;919;48.274;12.292;2022-08-19T11:03:36;11.73;;;10.50;;
1799;SDS011;919;48.274;12.292;2022-08-19T11:06:05;10.17;;;9.10;;
1799;SDS011;919;48.274;12.292;2022-08-19T11:08:34;9.57;;;8.57;;
1799;SDS011;919;48.274;12.292;2022-08-19T11:11:02;10.87;;;9.17;;
1799;SDS011;919;48.274;12.292;2022-08-19T11:13:31;11.57;;;10.27;;
1799;SDS011;919;48.274;12.292;2022-08-19T11:16:03;14.97;;;11.27;;
1799;SDS011;919;48.274;12.292;2022-08-19T11:18:32;11.50;;;9.90;;
1799;SDS011;919;48.274;12.292;2022-08-19T11:21:07;11.60;;;10.40;;
1799;SDS011;919;48.274;12.292;2022-08-19T11:23:37;10.67;;;9.60;;
1799;SDS011;919;48.274;12.292;2022-08-19T11:26:04;12.03;;;10.67;;
1799;SDS011;919;48.274;12.292;2022-08-19T11:28:31;10.90;;;9.90;;
1799;SDS011;919;48.274;12.292;2022-08-19T11:30:58;12.90;;;11.60;;
1799;SDS011;919;48.274;12.292;2022-08-19T11:33:25;11.13;;;10.03;;
1799;SDS011;919;48.274;12.292;2022-08-19T11:35:52;12.70;;;11.43;;
1799;SDS011;919;48.274;12.292;2022-08-19T11:38:19;12.87;;;11.57;;
1799;SDS011;919;48.274;12.292;2022-08-19T11:40:54;12.33;;;11.13;;
1799;SDS011;919;48.274;12.292;2022-08-19T11:43:21;10.63;;;9.63;;
1799;SDS011;919;48.274;12.292;2022-08-19T11:45:49;12.10;;;10.90;;
1799;SDS011;919;48.274;12.292;2022-08-19T11:48:16;12.03;;;10.93;;
1799;SDS011;919;48.274;12.292;2022-08-19T11:50:47;9.13;;;8.33;;
1799;SDS011;919;48.274;12.292;2022-08-19T11:53:14;10.23;;;9.33;;
1799;SDS011;919;48.274;12.292;2022-08-19T11:55:41;11.40;;;10.30;;
1799;SDS011;919;48.274;12.292;2022-08-19T11:58:09;10.17;;;9.27;;
1799;SDS011;919;48.274;12.292;2022-08-19T12:00:36;10.80;;;9.80;;
1799;SDS011;919;48.274;12.292;2022-08-19T12:03:03;10.87;;;9.87;;
1799;SDS011;919;48.274;12.292;2022-08-19T12:05:30;10.67;;;9.67;;
1799;SDS011;919;48.274;12.292;2022-08-19T12:07:57;11.27;;;10.20;;
1799;SDS011;919;48.274;12.292;2022-08-19T12:10:24;10.37;;;9.47;;
1799;SDS011;919;48.274;12.292;2022-08-19T12:12:50;9.90;;;9.00;;
1799;SDS011;919;48.274;12.292;2022-08-19T12:15:19;8.70;;;7.90;;
1799;SDS011;919;48.274;12.292;2022-08-19T12:17:46;8.10;;;7.40;;
1799;SDS011;919;48.274;12.292;2022-08-19T12:20:13;9.13;;;8.33;;
1799;SDS011;919;48.274;12.292;2022-08-19T12:22:42;9.50;;;8.60;;
1799;SDS011;919;48.274;12.292;2022-08-19T12:25:09;8.40;;;7.70;;
1799;SDS011;919;48.274;12.292;2022-08-19T12:27:37;7.47;;;6.70;;
1799;SDS011;919;48.274;12.292;2022-08-19T12:30:04;8.23;;;7.50;;
1799;SDS011;919;48.274;12.292;2022-08-19T12:32:34;7.13;;;6.53;;
1799;SDS011;919;48.274;12.292;2022-08-19T12:35:00;6.37;;;5.87;;
1799;SDS011;919;48.274;12.292;2022-08-19T12:37:27;6.37;;;5.83;;
1799;SDS011;919;48.274;12.292;2022-08-19T12:39:54;6.43;;;5.90;;
1799;SDS011;919;48.274;12.292;2022-08-19T12:42:21;5.87;;;5.37;;
1799;SDS011;919;48.274;12.292;2022-08-19T12:44:48;5.70;;;5.30;;
1799;SDS011;919;48.274;12.292;2022-08-19T12:47:16;6.27;;;5.77;;
1799;SDS011;919;48.274;12.292;2022-08-19T12:49:44;7.10;;;6.50;;
1799;SDS011;919;48.274;12.292;2022-08-19T12:52:12;6.87;;;6.30;;
1799;SDS011;919;48.274;12.292;2022-08-19T12:54:40;7.30;;;6.60;;
1799;SDS011;919;48.274;12.292;2022-08-19T12:57:08;6.70;;;6.10;;
1799;SDS011;919;48.274;12.292;2022-08-19T12:59:36;6.70;;;6.10;;
1799;SDS011;919;48.274;12.292;2022-08-19T13:02:04;7.10;;;6.40;;
1799;SDS011;919;48.274;12.292;2022-08-19T13:04:31;9.50;;;8.70;;
1799;SDS011;919;48.274;12.292;2022-08-19T13:07:02;10.53;;;9.63;;
1799;SDS011;919;48.274;12.292;2022-08-19T13:09:29;8.90;;;8.00;;
1799;SDS011;919;48.274;12.292;2022-08-19T13:11:56;8.43;;;7.57;;
1799;SDS011;919;48.274;12.292;2022-08-19T13:14:23;8.93;;;8.13;;
1799;SDS011;919;48.274;12.292;2022-08-19T13:16:50;9.53;;;8.43;;
1799;SDS011;919;48.274;12.292;2022-08-19T13:19:16;13.67;;;12.27;;
1799;SDS011;919;48.274;12.292;2022-08-19T13:21:45;14.87;;;13.37;;
1799;SDS011;919;48.274;12.292;2022-08-19T13:24:17;13.37;;;12.00;;
1799;SDS011;919;48.274;12.292;2022-08-19T13:26:43;13.03;;;11.80;;
1799;SDS011;919;48.274;12.292;2022-08-19T13:29:10;11.20;;;9.20;;
1799;SDS011;919;48.274;12.292;2022-08-19T13:31:55;10.07;;;9.07;;
1799;SDS011;919;48.274;12.292;2022-08-19T13:34:39;11.10;;;10.00;;
1799;SDS011;919;48.274;12.292;2022-08-19T13:37:06;11.43;;;10.30;;
1799;SDS011;919;48.274;12.292;2022-08-19T13:39:34;10.30;;;9.30;;
1799;SDS011;919;48.274;12.292;2022-08-19T13:42:01;10.50;;;9.50;;
1799;SDS011;919;48.274;12.292;2022-08-19T13:44:29;12.60;;;11.30;;
1799;SDS011;919;48.274;12.292;2022-08-19T13:46:59;13.40;;;12.00;;
1799;SDS011;919;48.274;12.292;2022-08-19T13:49:30;14.13;;;12.83;;
1799;SDS011;919;48.274;12.292;2022-08-19T13:51:57;11.97;;;10.77;;
1799;SDS011;919;48.274;12.292;2022-08-19T13:54:24;12.83;;;11.53;;
1799;SDS011;919;48.274;12.292;2022-08-19T13:56:53;11.20;;;10.13;;
1799;SDS011;919;48.274;12.292;2022-08-19T13:59:20;8.80;;;8.00;;
1799;SDS011;919;48.274;12.292;2022-08-19T14:01:46;9.27;;;8.27;;
1799;SDS011;919;48.274;12.292;2022-08-19T14:04:13;8.27;;;7.57;;
1799;SDS011;919;48.274;12.292;2022-08-19T14:06:40;6.93;;;6.33;;
1799;SDS011;919;48.274;12.292;2022-08-19T14:09:07;5.33;;;4.90;;
1799;SDS011;919;48.274;12.292;2022-08-19T14:11:33;5.97;;;5.50;;
1799;SDS011;919;48.274;12.292;2022-08-19T14:14:02;6.50;;;6.00;;
1799;SDS011;919;48.274;12.292;2022-08-19T14:16:28;6.73;;;6.23;;
1799;SDS011;919;48.274;12.292;2022-08-19T14:18:56;7.67;;;7.13;;
1799;SDS011;919;48.274;12.292;2022-08-19T14:21:23;5.87;;;5.47;;
1799;SDS011;919;48.274;12.292;2022-08-19T14:23:51;4.40;;;4.10;;
1799;SDS011;919;48.274;12.292;2022-08-19T14:26:18;4.80;;;4.40;;
1799;SDS011;919;48.274;12.292;2022-08-19T14:28:47;4.10;;;3.80;;
1799;SDS011;919;48.274;12.292;2022-08-19T14:31:16;4.10;;;3.70;;
1799;SDS011;919;48.274;12.292;2022-08-19T14:33:44;5.80;;;5.30;;
1799;SDS011;919;48.274;12.292;2022-08-19T14:36:12;3.83;;;3.53;;
1799;SDS011;919;48.274;12.292;2022-08-19T14:38:38;3.00;;;2.80;;
1799;SDS011;919;48.274;12.292;2022-08-19T14:41:07;2.90;;;2.70;;
1799;SDS011;919;48.274;12.292;2022-08-19T14:43:35;2.97;;;2.77;;
1799;SDS011;919;48.274;12.292;2022-08-19T14:46:02;1.93;;;1.83;;
1799;SDS011;919;48.274;12.292;2022-08-19T14:48:30;2.30;;;2.20;;
1799;SDS011;919;48.274;12.292;2022-08-19T14:50:57;1.90;;;1.80;;
1799;SDS011;919;48.274;12.292;2022-08-19T14:53:24;2.30;;;2.07;;
1799;SDS011;919;48.274;12.292;2022-08-19T14:55:51;2.60;;;2.40;;
1799;SDS011;919;48.274;12.292;2022-08-19T14:58:18;2.67;;;2.50;;
1799;SDS011;919;48.274;12.292;2022-08-19T15:00:45;2.70;;;2.50;;
1799;SDS011;919;48.274;12.292;2022-08-19T15:03:12;2.43;;;2.23;;
1799;SDS011;919;48.274;12.292;2022-08-19T15:05:40;2.17;;;2.07;;
1799;SDS011;919;48.274;12.292;2022-08-19T15:08:07;2.50;;;2.30;;
1799;SDS011;919;48.274;12.292;2022-08-19T15:10:34;2.90;;;2.70;;
1799;SDS011;919;48.274;12.292;2022-08-19T15:13:00;3.17;;;2.90;;